createdAt,value
2018-02-08T00:00:48.279Z,0.00
2018-02-08T00:01:48.296Z,0.00
2018-02-08T00:02:48.304Z,0.00
2018-02-08T00:03:48.319Z,0.00
2018-02-08T00:04:48.340Z,0.00
2018-02-08T00:05:48.355Z,0.00
2018-02-08T00:06:48.369Z,0.00
2018-02-08T00:07:48.386Z,0.00
2018-02-08T00:08:48.397Z,0.00
2018-02-08T00:09:48.408Z,0.00
2018-02-08T00:10:48.428Z,0.00
2018-02-08T00:11:48.443Z,0.00
2018-02-08T00:12:48.451Z,0.00
2018-02-08T00:13:48.472Z,0.00
2018-02-08T00:14:48.487Z,0.00
2018-02-08T00:15:48.501Z,0.00
2018-02-08T00:16:48.510Z,0.00
2018-02-08T00:17:48.525Z,0.00
2018-02-08T00:18:48.545Z,0.00
2018-02-08T00:19:48.554Z,0.00
2018-02-08T00:20:48.569Z,0.00
2018-02-08T00:21:48.591Z,0.00
2018-02-08T00:22:48.601Z,0.00
2018-02-08T00:23:48.613Z,0.00
2018-02-08T00:24:48.633Z,0.00
2018-02-08T00:25:48.649Z,0.00
2018-02-08T00:26:48.657Z,0.00
2018-02-08T00:27:48.672Z,0.00
2018-02-08T00:28:48.693Z,0.00
2018-02-08T00:29:48.708Z,0.00
2018-02-08T00:30:48.722Z,0.00
2018-02-08T00:31:48.737Z,0.00
2018-02-08T00:32:48.746Z,0.00
2018-02-08T00:33:48.762Z,0.00
2018-02-08T00:34:48.780Z,0.00
2018-02-08T00:35:48.790Z,0.00
2018-02-08T00:36:48.804Z,0.00
2018-02-08T00:37:48.821Z,0.00
2018-02-08T00:38:48.839Z,0.00
2018-02-08T00:39:48.856Z,0.00
2018-02-08T00:40:48.863Z,0.00
2018-02-08T00:41:48.878Z,0.00
2018-02-08T00:42:48.897Z,0.00
2018-02-08T00:43:48.913Z,0.00
2018-02-08T00:44:48.922Z,0.00
2018-02-08T00:45:48.942Z,0.00
2018-02-08T00:46:48.957Z,0.00
2018-02-08T00:47:48.965Z,0.00
2018-02-08T00:48:48.987Z,0.00
2018-02-08T00:49:48.996Z,0.00
2018-02-08T00:50:49.015Z,0.00
2018-02-08T00:51:49.030Z,0.00
2018-02-08T00:52:49.045Z,0.00
2018-02-08T00:53:49.054Z,0.00
2018-02-08T00:54:49.077Z,0.00
2018-02-08T00:55:49.088Z,0.00
2018-02-08T00:56:49.103Z,0.00
2018-02-08T00:57:49.113Z,0.00
2018-02-08T00:58:49.132Z,0.00
2018-02-08T00:59:49.142Z,0.00
2018-02-08T01:00:49.163Z,0.00
2018-02-08T01:01:49.172Z,0.00
2018-02-08T01:02:49.185Z,0.00
2018-02-08T01:03:49.201Z,0.00
2018-02-08T01:04:49.216Z,0.00
2018-02-08T01:05:49.235Z,0.00
2018-02-08T01:06:49.244Z,0.00
2018-02-08T01:07:49.259Z,0.00
2018-02-08T01:08:49.280Z,0.00
2018-02-08T01:09:49.295Z,0.00
2018-02-08T01:10:49.304Z,0.00
2018-02-08T01:11:49.322Z,0.00
2018-02-08T01:12:49.333Z,0.00
2018-02-08T01:13:49.354Z,0.00
2018-02-08T01:14:49.364Z,0.00
2018-02-08T01:15:49.382Z,0.00
2018-02-08T01:16:49.391Z,0.00
2018-02-08T01:17:49.407Z,0.00
2018-02-08T01:18:49.426Z,0.00
2018-02-08T01:19:49.440Z,0.00
2018-02-08T01:20:49.450Z,0.00
2018-02-08T01:21:49.465Z,0.00
2018-02-08T01:22:49.485Z,0.00
2018-02-08T01:23:49.499Z,0.00
2018-02-08T01:24:49.508Z,0.00
2018-02-08T01:25:49.528Z,0.00
2018-02-08T01:26:49.542Z,0.00
2018-02-08T01:27:49.552Z,0.00
2018-02-08T01:28:49.573Z,0.00
2018-02-08T01:29:49.583Z,0.00
2018-02-08T01:30:49.602Z,0.00
2018-02-08T01:31:49.617Z,0.00
2018-02-08T01:32:49.631Z,0.00
2018-02-08T01:33:49.645Z,0.00
2018-02-08T01:34:49.654Z,0.00
2018-02-08T01:35:49.675Z,0.00
2018-02-08T01:36:49.691Z,0.00
2018-02-08T01:37:49.699Z,0.00
2018-02-08T01:38:49.714Z,0.00
2018-02-08T01:39:49.728Z,0.00
2018-02-08T01:40:49.749Z,0.00
2018-02-08T01:41:49.763Z,0.00
2018-02-08T01:42:49.776Z,0.00
2018-02-08T01:43:49.787Z,0.00
2018-02-08T01:44:49.807Z,0.00
2018-02-08T01:45:49.821Z,0.00
2018-02-08T01:46:49.829Z,0.00
2018-02-08T01:47:49.846Z,0.00
2018-02-08T01:48:49.864Z,0.00
2018-02-08T01:49:49.875Z,0.00
2018-02-08T01:50:49.894Z,0.00
2018-02-08T01:51:49.902Z,0.00
2018-02-08T01:52:49.923Z,0.00
2018-02-08T01:53:49.937Z,0.00
2018-02-08T01:54:49.951Z,0.00
2018-02-08T01:55:49.960Z,0.00
2018-02-08T01:56:49.978Z,0.00
2018-02-08T01:57:49.992Z,0.00
2018-02-08T01:58:50.063Z,0.00
2018-02-08T01:59:50.025Z,0.00
2018-02-08T02:00:50.033Z,0.00
2018-02-08T02:01:50.048Z,0.00
2018-02-08T02:02:50.068Z,0.00
2018-02-08T02:03:50.083Z,0.00
2018-02-08T02:04:50.092Z,0.00
2018-02-08T02:05:50.108Z,0.00
2018-02-08T02:06:50.126Z,0.00
2018-02-08T02:07:50.139Z,0.00
2018-02-08T02:08:50.155Z,0.00
2018-02-08T02:09:50.169Z,0.00
2018-02-08T02:10:50.183Z,0.00
2018-02-08T02:11:50.192Z,0.00
2018-02-08T02:12:50.213Z,0.00
2018-02-08T02:13:50.221Z,0.00
2018-02-08T02:14:50.242Z,0.00
2018-02-08T02:15:50.251Z,0.00
2018-02-08T02:16:50.271Z,0.00
2018-02-08T02:17:50.281Z,0.00
2018-02-08T02:18:50.300Z,0.00
2018-02-08T02:19:50.309Z,0.00
2018-02-08T02:20:50.329Z,0.00
2018-02-08T02:21:50.346Z,0.00
2018-02-08T02:22:50.352Z,0.00
2018-02-08T02:23:50.366Z,0.00
2018-02-08T02:24:50.380Z,0.00
2018-02-08T02:25:50.395Z,0.00
2018-02-08T02:26:50.408Z,0.00
2018-02-08T02:27:50.432Z,0.00
2018-02-08T02:28:50.438Z,0.00
2018-02-08T02:29:50.458Z,0.00
2018-02-08T02:30:50.465Z,0.00
2018-02-08T02:31:50.486Z,0.00
2018-02-08T02:32:50.495Z,0.00
2018-02-08T02:33:50.515Z,0.00
2018-02-08T02:34:50.524Z,0.00
2018-02-08T02:35:50.544Z,0.00
2018-02-08T02:36:50.554Z,0.00
2018-02-08T02:37:50.569Z,0.00
2018-02-08T02:38:50.587Z,0.00
2018-02-08T02:39:50.595Z,0.00
2018-02-08T02:40:50.616Z,0.00
2018-02-08T02:41:50.630Z,0.00
2018-02-08T02:42:50.645Z,0.00
2018-02-08T02:43:50.653Z,0.00
2018-02-08T02:44:50.723Z,0.00
2018-02-08T02:45:50.688Z,0.00
2018-02-08T02:46:50.697Z,0.00
2018-02-08T02:47:50.711Z,0.00
2018-02-08T02:48:50.731Z,0.00
2018-02-08T02:49:50.745Z,0.00
2018-02-08T02:50:50.752Z,0.00
2018-02-08T02:51:50.768Z,0.00
2018-02-08T02:52:50.789Z,0.00
2018-02-08T02:53:50.798Z,0.00
2018-02-08T02:54:50.815Z,0.00
2018-02-08T02:55:50.830Z,0.00
2018-02-08T02:56:50.839Z,0.00
2018-02-08T02:57:50.860Z,0.00
2018-02-08T02:58:50.873Z,0.00
2018-02-08T02:59:50.887Z,0.00
2018-02-08T03:00:50.903Z,0.00
2018-02-08T03:01:50.911Z,0.00
2018-02-08T03:02:50.938Z,0.00
2018-02-08T03:03:50.945Z,0.00
2018-02-08T03:04:50.954Z,0.00
2018-02-08T03:05:50.967Z,0.00
2018-02-08T03:06:50.987Z,0.00
2018-02-08T03:07:51.001Z,0.00
2018-02-08T03:08:51.010Z,0.00
2018-02-08T03:09:51.030Z,0.00
2018-02-08T03:10:51.039Z,0.00
2018-02-08T03:11:51.053Z,0.00
2018-02-08T03:12:51.068Z,0.00
2018-02-08T03:13:51.082Z,0.00
2018-02-08T03:14:51.098Z,0.00
2018-02-08T03:15:51.118Z,0.00
2018-02-08T03:16:51.124Z,0.00
2018-02-08T03:17:51.139Z,0.00
2018-02-08T03:18:51.158Z,0.00
2018-02-08T03:19:51.168Z,0.00
2018-02-08T03:20:51.187Z,0.00
2018-02-08T03:21:51.196Z,0.00
2018-02-08T03:22:51.214Z,0.00
2018-02-08T03:23:51.223Z,0.00
2018-02-08T03:24:51.244Z,0.00
2018-02-08T03:25:51.252Z,0.00
2018-02-08T03:26:51.277Z,0.00
2018-02-08T03:27:51.280Z,0.00
2018-02-08T03:28:51.295Z,0.00
2018-02-08T03:29:51.315Z,0.00
2018-02-08T03:30:51.330Z,0.00
2018-02-08T03:31:51.342Z,0.00
2018-02-08T03:32:51.352Z,0.00
2018-02-08T03:33:51.371Z,0.00
2018-02-08T03:34:51.379Z,0.00
2018-02-08T03:35:51.399Z,0.00
2018-02-08T03:36:51.408Z,0.00
2018-02-08T03:37:51.428Z,0.00
2018-02-08T03:38:51.437Z,0.00
2018-02-08T03:39:51.459Z,0.00
2018-02-08T03:40:51.465Z,0.00
2018-02-08T03:41:51.485Z,0.00
2018-02-08T03:42:51.494Z,0.00
2018-02-08T03:43:51.513Z,0.00
2018-02-08T03:44:51.522Z,0.00
2018-02-08T03:45:51.541Z,0.00
2018-02-08T03:46:51.549Z,0.00
2018-02-08T03:47:51.569Z,0.00
2018-02-08T03:48:51.578Z,0.00
2018-02-08T03:49:51.592Z,0.00
2018-02-08T03:50:51.612Z,0.00
2018-02-08T03:51:51.620Z,0.00
2018-02-08T03:52:51.640Z,0.00
2018-02-08T03:53:51.649Z,0.00
2018-02-08T03:54:51.673Z,0.00
2018-02-08T03:55:51.678Z,0.00
2018-02-08T03:56:51.697Z,0.00
2018-02-08T03:57:51.705Z,0.00
2018-02-08T03:58:51.724Z,0.00
2018-02-08T03:59:51.734Z,0.00
2018-02-08T04:00:51.752Z,0.00
2018-02-08T04:01:51.761Z,0.00
2018-02-08T04:02:51.781Z,0.00
2018-02-08T04:03:51.790Z,0.00
2018-02-08T04:04:51.810Z,0.00
2018-02-08T04:05:51.819Z,0.00
2018-02-08T04:06:51.837Z,0.00
2018-02-08T04:07:51.852Z,0.00
2018-02-08T04:08:51.860Z,0.00
2018-02-08T04:09:51.875Z,0.00
2018-02-08T04:10:51.894Z,0.00
2018-02-08T04:11:51.908Z,0.00
2018-02-08T04:12:51.916Z,0.00
2018-02-08T04:13:51.940Z,0.00
2018-02-08T04:14:51.944Z,0.00
2018-02-08T04:15:51.958Z,0.00
2018-02-08T04:16:51.979Z,0.00
2018-02-08T04:17:51.994Z,0.00
2018-02-08T04:18:52.000Z,0.00
2018-02-08T04:19:52.016Z,0.00
2018-02-08T04:20:52.036Z,0.00
2018-02-08T04:21:52.044Z,0.00
2018-02-08T04:22:52.063Z,0.00
2018-02-08T04:23:52.077Z,0.00
2018-02-08T04:24:52.086Z,0.00
2018-02-08T04:25:52.101Z,0.00
2018-02-08T04:26:52.119Z,0.00
2018-02-08T04:27:52.134Z,0.00
2018-02-08T04:28:52.143Z,0.00
2018-02-08T04:29:52.158Z,0.00
2018-02-08T04:30:52.177Z,0.00
2018-02-08T04:31:52.190Z,0.00
2018-02-08T04:32:52.200Z,0.00
2018-02-08T04:33:52.213Z,0.00
2018-02-08T04:34:52.237Z,0.00
2018-02-08T04:35:52.247Z,0.00
2018-02-08T04:36:52.255Z,0.00
2018-02-08T04:37:52.276Z,0.00
2018-02-08T04:38:52.285Z,0.00
2018-02-08T04:39:52.304Z,0.00
2018-02-08T04:40:52.313Z,0.00
2018-02-08T04:41:52.332Z,0.00
2018-02-08T04:42:52.340Z,0.00
2018-02-08T04:43:52.362Z,0.00
2018-02-08T04:44:52.370Z,0.00
2018-02-08T04:45:52.389Z,0.00
2018-02-08T04:46:52.397Z,0.00
2018-02-08T04:47:52.417Z,0.00
2018-02-08T04:48:52.427Z,0.00
2018-02-08T04:49:52.446Z,0.00
2018-02-08T04:50:52.455Z,0.00
2018-02-08T04:51:52.473Z,0.00
2018-02-08T04:52:52.483Z,0.00
2018-02-08T04:53:52.504Z,0.00
2018-02-08T04:54:52.510Z,0.00
2018-02-08T04:55:52.530Z,0.00
2018-02-08T04:56:52.538Z,0.00
2018-02-08T04:57:52.559Z,0.00
2018-02-08T04:58:52.567Z,0.00
2018-02-08T04:59:52.587Z,0.00
2018-02-08T05:00:52.596Z,0.00
2018-02-08T05:01:52.609Z,0.00
2018-02-08T05:02:52.629Z,0.00
2018-02-08T05:03:52.639Z,0.00
2018-02-08T05:04:52.658Z,0.00
2018-02-08T05:05:52.668Z,0.00
2018-02-08T05:06:52.686Z,0.00
2018-02-08T05:07:52.693Z,0.00
2018-02-08T05:08:52.716Z,0.00
2018-02-08T05:09:52.724Z,0.00
2018-02-08T05:10:52.743Z,0.00
2018-02-08T05:11:52.751Z,0.00
2018-02-08T05:12:52.771Z,0.00
2018-02-08T05:13:52.781Z,0.00
2018-02-08T05:14:52.799Z,0.00
2018-02-08T05:15:52.814Z,0.00
2018-02-08T05:16:52.827Z,0.00
2018-02-08T05:17:52.841Z,0.00
2018-02-08T05:18:52.849Z,0.00
2018-02-08T05:19:52.863Z,0.00
2018-02-08T05:20:52.885Z,0.00
2018-02-08T05:21:52.897Z,0.00
2018-02-08T05:22:52.905Z,0.00
2018-02-08T05:23:52.921Z,0.00
2018-02-08T05:24:52.942Z,0.00
2018-02-08T05:25:52.954Z,0.00
2018-02-08T05:26:52.963Z,0.00
2018-02-08T05:27:52.977Z,0.00
2018-02-08T05:28:52.996Z,0.00
2018-02-08T05:29:53.011Z,0.00
2018-02-08T05:30:53.058Z,0.00
2018-02-08T05:31:53.032Z,0.00
2018-02-08T05:32:53.053Z,0.00
2018-02-08T05:33:53.062Z,0.00
2018-02-08T05:34:53.080Z,0.00
2018-02-08T05:35:53.094Z,0.00
2018-02-08T05:36:53.102Z,0.00
2018-02-08T05:37:53.117Z,0.00
2018-02-08T05:38:53.138Z,0.00
2018-02-08T05:39:53.150Z,0.00
2018-02-08T05:40:53.162Z,0.00
2018-02-08T05:41:53.172Z,0.00
2018-02-08T05:42:53.192Z,0.00
2018-02-08T05:43:53.206Z,0.00
2018-02-08T05:44:53.216Z,0.00
2018-02-08T05:45:53.234Z,0.00
2018-02-08T05:46:53.247Z,0.00
2018-02-08T05:47:53.263Z,0.00
2018-02-08T05:48:53.271Z,0.00
2018-02-08T05:49:53.284Z,0.00
2018-02-08T05:50:53.304Z,0.00
2018-02-08T05:51:53.313Z,0.00
2018-02-08T05:52:53.332Z,0.00
2018-02-08T05:53:53.341Z,0.00
2018-02-08T05:54:53.361Z,0.00
2018-02-08T05:55:53.368Z,0.00
2018-02-08T05:56:53.388Z,0.00
2018-02-08T05:57:53.398Z,0.00
2018-02-08T05:58:53.410Z,0.00
2018-02-08T05:59:53.423Z,0.00
2018-02-08T06:00:53.444Z,0.00
2018-02-08T06:01:53.455Z,0.00
2018-02-08T06:02:53.471Z,0.00
2018-02-08T06:03:53.480Z,0.00
2018-02-08T06:04:53.494Z,0.00
2018-02-08T06:05:53.514Z,0.00
2018-02-08T06:06:53.521Z,0.00
2018-02-08T06:07:53.541Z,0.00
2018-02-08T06:08:53.551Z,0.00
2018-02-08T06:09:53.570Z,0.00
2018-02-08T06:10:53.578Z,0.00
2018-02-08T06:11:53.598Z,0.00
2018-02-08T06:12:53.605Z,0.00
2018-02-08T06:13:53.625Z,0.00
2018-02-08T06:14:53.640Z,0.00
2018-02-08T06:15:53.647Z,0.00
2018-02-08T06:16:53.667Z,0.00
2018-02-08T06:17:53.684Z,0.00
2018-02-08T06:18:53.688Z,0.00
2018-02-08T06:19:53.704Z,0.00
2018-02-08T06:20:53.718Z,0.00
2018-02-08T06:21:53.737Z,4.00
2018-02-08T06:22:53.746Z,4.00
2018-02-08T06:23:53.758Z,4.00
2018-02-08T06:24:53.778Z,0.00
2018-02-08T06:25:53.794Z,4.00
2018-02-08T06:26:53.801Z,4.00
2018-02-08T06:27:53.815Z,4.00
2018-02-08T06:28:53.834Z,4.00
2018-02-08T06:29:53.848Z,4.00
2018-02-08T06:30:53.861Z,4.00
2018-02-08T06:31:53.870Z,8.00
2018-02-08T06:32:53.884Z,8.00
2018-02-08T06:33:53.904Z,12.00
2018-02-08T06:34:53.912Z,16.00
2018-02-08T06:35:53.931Z,16.00
2018-02-08T06:36:53.939Z,20.00
2018-02-08T06:37:53.956Z,24.00
2018-02-08T06:38:53.974Z,28.00
2018-02-08T06:39:53.987Z,32.00
2018-02-08T06:40:53.995Z,40.00
2018-02-08T06:41:54.011Z,48.00
2018-02-08T06:42:54.030Z,52.00
2018-02-08T06:43:54.048Z,60.00
2018-02-08T06:44:54.052Z,68.00
2018-02-08T06:45:54.070Z,80.00
2018-02-08T06:46:54.084Z,92.00
2018-02-08T06:47:54.097Z,108.00
2018-02-08T06:48:54.107Z,120.00
2018-02-08T06:49:54.127Z,136.00
2018-02-08T06:50:54.135Z,156.00
2018-02-08T06:51:54.153Z,180.00
2018-02-08T06:52:54.168Z,200.00
2018-02-08T06:53:54.176Z,224.00
2018-02-08T06:54:54.195Z,248.00
2018-02-08T06:55:54.203Z,272.00
2018-02-08T06:56:54.223Z,300.00
2018-02-08T06:57:54.233Z,332.00
2018-02-08T06:58:54.252Z,360.00
2018-02-08T06:59:54.259Z,392.00
2018-02-08T07:00:54.280Z,424.00
2018-02-08T07:01:54.294Z,460.00
2018-02-08T07:02:54.308Z,492.00
2018-02-08T07:03:54.322Z,532.00
2018-02-08T07:04:54.331Z,568.00
2018-02-08T07:05:54.349Z,612.00
2018-02-08T07:06:54.358Z,656.00
2018-02-08T07:07:54.378Z,704.00
2018-02-08T07:08:54.394Z,748.00
2018-02-08T07:09:54.406Z,800.00
2018-02-08T07:10:54.412Z,848.00
2018-02-08T07:11:54.432Z,908.00
2018-02-08T07:12:54.442Z,964.00
2018-02-08T07:13:54.461Z,1028.00
2018-02-08T07:14:54.469Z,1096.00
2018-02-08T07:15:54.488Z,1168.00
2018-02-08T07:16:54.497Z,1240.00
2018-02-08T07:17:54.553Z,1320.00
2018-02-08T07:18:54.527Z,1408.00
2018-02-08T07:19:54.540Z,1500.00
2018-02-08T07:20:54.558Z,1600.00
2018-02-08T07:21:54.567Z,1704.00
2018-02-08T07:22:54.586Z,1808.00
2018-02-08T07:23:54.595Z,1920.00
2018-02-08T07:24:54.610Z,2028.00
2018-02-08T07:25:54.629Z,2132.00
2018-02-08T07:26:54.637Z,2232.00
2018-02-08T07:27:54.652Z,2336.00
2018-02-08T07:28:54.671Z,2440.00
2018-02-08T07:29:54.686Z,2528.00
2018-02-08T07:30:54.695Z,2628.00
2018-02-08T07:31:54.708Z,2732.00
2018-02-08T07:32:54.728Z,2844.00
2018-02-08T07:33:54.743Z,2964.00
2018-02-08T07:34:54.748Z,3096.00
2018-02-08T07:35:54.770Z,3224.00
2018-02-08T07:36:54.784Z,3348.00
2018-02-08T07:37:54.794Z,3464.00
2018-02-08T07:38:54.806Z,3588.00
2018-02-08T07:39:54.820Z,3700.00
2018-02-08T07:40:54.841Z,3816.00
2018-02-08T07:41:54.850Z,3916.00
2018-02-08T07:42:54.868Z,4012.00
2018-02-08T07:43:54.885Z,4096.00
2018-02-08T07:44:54.891Z,4184.00
2018-02-08T07:45:54.906Z,4272.00
2018-02-08T07:46:54.925Z,4372.00
2018-02-08T07:47:54.939Z,4476.00
2018-02-08T07:48:54.948Z,4588.00
2018-02-08T07:49:54.962Z,4672.00
2018-02-08T07:50:54.982Z,4664.00
2018-02-08T07:51:54.991Z,4620.00
2018-02-08T07:52:55.005Z,4668.00
2018-02-08T07:53:55.025Z,4736.00
2018-02-08T07:54:55.039Z,4864.00
2018-02-08T07:55:55.054Z,5016.00
2018-02-08T07:56:55.063Z,5104.00
2018-02-08T07:57:55.083Z,5156.00
2018-02-08T07:58:55.092Z,5252.00
2018-02-08T07:59:55.107Z,5356.00
2018-02-08T08:00:55.126Z,5512.00
2018-02-08T08:01:55.141Z,5704.00
2018-02-08T08:02:55.152Z,5916.00
2018-02-08T08:03:55.181Z,6072.00
2018-02-08T08:04:55.183Z,6160.00
2018-02-08T08:05:55.198Z,6300.00
2018-02-08T08:06:55.206Z,6476.00
2018-02-08T08:07:55.221Z,6572.00
2018-02-08T08:08:55.241Z,6604.00
2018-02-08T08:09:55.256Z,6636.00
2018-02-08T08:10:55.265Z,6704.00
2018-02-08T08:11:55.281Z,6728.00
2018-02-08T08:12:55.299Z,6680.00
2018-02-08T08:13:55.309Z,6548.00
2018-02-08T08:14:55.327Z,6388.00
2018-02-08T08:15:55.342Z,6304.00
2018-02-08T08:16:55.353Z,6332.00
2018-02-08T08:17:55.366Z,6456.00
2018-02-08T08:18:55.387Z,6544.00
2018-02-08T08:19:55.405Z,6616.00
2018-02-08T08:20:55.413Z,7024.00
2018-02-08T08:21:55.425Z,7844.00
2018-02-08T08:22:55.444Z,8540.00
2018-02-08T08:23:55.459Z,8840.00
2018-02-08T08:24:55.468Z,8988.00
2018-02-08T08:25:55.485Z,9148.00
2018-02-08T08:26:55.504Z,9192.00
2018-02-08T08:27:55.517Z,9304.00
2018-02-08T08:28:55.528Z,9260.00
2018-02-08T08:29:55.549Z,9468.00
2018-02-08T08:30:55.556Z,10216.00
2018-02-08T08:31:55.579Z,10580.00
2018-02-08T08:32:55.586Z,10688.00
2018-02-08T08:33:55.608Z,10680.00
2018-02-08T08:34:55.621Z,10636.00
2018-02-08T08:35:55.637Z,10572.00
2018-02-08T08:36:55.649Z,10548.00
2018-02-08T08:37:55.668Z,10548.00
2018-02-08T08:38:55.677Z,10504.00
2018-02-08T08:39:55.697Z,10060.00
2018-02-08T08:40:55.708Z,9204.00
2018-02-08T08:41:55.728Z,8836.00
2018-02-08T08:42:55.736Z,8680.00
2018-02-08T08:43:55.758Z,8832.00
2018-02-08T08:44:55.767Z,9432.00
2018-02-08T08:45:55.784Z,9172.00
2018-02-08T08:46:55.804Z,9148.00
2018-02-08T08:47:55.814Z,9052.00
2018-02-08T08:48:55.837Z,8952.00
2018-02-08T08:49:55.846Z,8672.00
2018-02-08T08:50:55.866Z,8512.00
2018-02-08T08:51:55.877Z,8692.00
2018-02-08T08:52:55.903Z,8596.00
2018-02-08T08:53:55.907Z,8588.00
2018-02-08T08:54:55.927Z,8596.00
2018-02-08T08:55:55.939Z,8560.00
2018-02-08T08:56:55.969Z,8604.00
2018-02-08T08:57:55.972Z,8528.00
2018-02-08T08:58:55.991Z,8500.00
2018-02-08T08:59:56.001Z,8564.00
2018-02-08T09:00:56.023Z,8968.00
2018-02-08T09:01:56.039Z,9856.00
2018-02-08T09:02:56.047Z,10168.00
2018-02-08T09:03:56.064Z,10104.00
2018-02-08T09:04:56.085Z,9948.00
2018-02-08T09:05:56.103Z,10032.00
2018-02-08T09:06:56.112Z,10616.00
2018-02-08T09:07:56.125Z,10820.00
2018-02-08T09:08:56.148Z,10516.00
2018-02-08T09:09:56.163Z,11308.00
2018-02-08T09:10:56.178Z,12216.00
2018-02-08T09:11:56.205Z,10120.00
2018-02-08T09:12:56.207Z,11640.00
2018-02-08T09:13:56.220Z,23584.00
2018-02-08T09:14:56.241Z,36064.00
2018-02-08T09:15:56.259Z,35808.00
2018-02-08T09:16:56.268Z,47200.00
2018-02-08T09:17:56.286Z,37792.00
2018-02-08T09:18:56.307Z,30080.00
2018-02-08T09:19:56.322Z,21888.00
2018-02-08T09:20:56.337Z,16960.00
2018-02-08T09:21:56.351Z,15200.00
2018-02-08T09:22:56.374Z,31584.00
2018-02-08T09:23:56.391Z,24288.00
2018-02-08T09:24:56.402Z,17120.00
2018-02-08T09:25:56.426Z,18560.00
2018-02-08T09:26:56.437Z,23968.00
2018-02-08T09:27:56.460Z,23584.00
2018-02-08T09:28:56.473Z,24128.00
2018-02-08T09:29:56.496Z,21024.00
2018-02-08T09:30:56.508Z,27744.00
2018-02-08T09:31:56.532Z,24672.00
2018-02-08T09:32:56.546Z,22848.00
2018-02-08T09:33:56.567Z,28704.00
2018-02-08T09:34:56.578Z,25056.00
2018-02-08T09:35:56.603Z,28992.00
2018-02-08T09:36:56.615Z,29504.00
2018-02-08T09:37:56.639Z,39744.00
2018-02-08T09:38:56.650Z,65056.00
2018-02-08T09:39:56.676Z,68352.00
2018-02-08T09:40:56.689Z,66912.00
2018-02-08T09:41:56.707Z,56672.00
2018-02-08T09:42:56.736Z,35712.00
2018-02-08T09:43:56.745Z,17984.00
2018-02-08T09:44:56.772Z,24832.00
2018-02-08T09:45:56.785Z,20096.00
2018-02-08T09:46:56.815Z,23424.00
2018-02-08T09:47:56.855Z,44512.00
2018-02-08T09:48:56.850Z,69248.00
2018-02-08T09:49:56.864Z,71104.00
2018-02-08T09:50:56.889Z,69088.00
2018-02-08T09:51:56.904Z,68096.00
2018-02-08T09:52:56.931Z,65888.00
2018-02-08T09:53:56.946Z,68096.00
2018-02-08T09:54:56.972Z,68032.00
2018-02-08T09:55:56.988Z,70656.00
2018-02-08T09:56:57.016Z,70144.00
2018-02-08T09:57:57.031Z,68224.00
2018-02-08T09:58:57.058Z,66624.00
2018-02-08T09:59:57.080Z,65088.00
2018-02-08T10:00:57.096Z,64512.00
2018-02-08T10:01:57.123Z,65312.00
2018-02-08T10:02:57.147Z,67392.00
2018-02-08T10:03:57.172Z,67744.00
2018-02-08T10:04:57.190Z,70112.00
2018-02-08T10:05:57.218Z,70464.00
2018-02-08T10:06:57.235Z,71456.00
2018-02-08T10:07:57.261Z,70432.00
2018-02-08T10:08:57.289Z,71328.00
2018-02-08T10:09:57.313Z,71584.00
2018-02-08T10:10:57.332Z,73056.00
2018-02-08T10:11:57.356Z,74368.00
2018-02-08T10:12:57.386Z,74336.00
2018-02-08T10:13:57.405Z,74848.00
2018-02-08T10:14:57.429Z,77792.00
2018-02-08T10:15:57.460Z,76352.00
2018-02-08T10:16:57.479Z,74208.00
2018-02-08T10:17:57.505Z,75776.00
2018-02-08T10:18:57.534Z,77600.00
2018-02-08T10:19:57.559Z,78400.00
2018-02-08T10:20:57.586Z,79744.00
2018-02-08T10:21:57.605Z,80192.00
2018-02-08T10:22:57.637Z,76352.00
2018-02-08T10:23:57.662Z,75616.00
2018-02-08T10:24:57.682Z,78336.00
2018-02-08T10:25:57.709Z,80160.00
2018-02-08T10:26:57.789Z,80256.00
2018-02-08T10:27:57.764Z,80096.00
2018-02-08T10:28:57.785Z,79456.00
2018-02-08T10:29:57.818Z,64800.00
2018-02-08T10:30:57.844Z,74816.00
2018-02-08T10:31:57.914Z,76896.00
2018-02-08T10:32:57.897Z,77824.00
2018-02-08T10:33:57.924Z,72960.00
2018-02-08T10:34:57.944Z,66048.00
2018-02-08T10:35:57.976Z,76128.00
2018-02-08T10:36:57.998Z,76032.00
2018-02-08T10:37:58.024Z,74592.00
2018-02-08T10:38:58.057Z,58144.00
2018-02-08T10:39:58.078Z,63904.00
2018-02-08T10:40:58.112Z,69632.00
2018-02-08T10:41:58.138Z,63808.00
2018-02-08T10:42:58.181Z,67392.00
2018-02-08T10:43:58.187Z,67904.00
2018-02-08T10:44:58.218Z,63264.00
2018-02-08T10:45:58.240Z,65824.00
2018-02-08T10:46:58.278Z,69760.00
2018-02-08T10:47:58.307Z,73856.00
2018-02-08T10:48:58.325Z,75968.00
2018-02-08T10:49:58.391Z,73536.00
2018-02-08T10:50:58.381Z,72896.00
2018-02-08T10:51:58.400Z,74272.00
2018-02-08T10:52:58.433Z,74176.00
2018-02-08T10:53:58.458Z,72832.00
2018-02-08T10:54:58.480Z,73664.00
2018-02-08T10:55:58.511Z,77728.00
2018-02-08T10:56:58.533Z,77888.00
2018-02-08T10:57:58.566Z,77376.00
2018-02-08T10:58:58.586Z,71232.00
2018-02-08T10:59:58.618Z,71168.00
2018-02-08T11:00:58.639Z,74912.00
2018-02-08T11:01:58.672Z,76768.00
2018-02-08T11:02:58.696Z,74176.00
2018-02-08T11:03:58.719Z,72896.00
2018-02-08T11:04:58.747Z,72128.00
2018-02-08T11:05:58.774Z,73248.00
2018-02-08T11:06:58.800Z,74464.00
2018-02-08T11:07:58.833Z,75840.00
2018-02-08T11:08:58.855Z,78656.00
2018-02-08T11:09:58.888Z,78368.00
2018-02-08T11:10:58.908Z,76672.00
2018-02-08T11:11:58.936Z,73344.00
2018-02-08T11:12:59.004Z,74528.00
2018-02-08T11:13:58.994Z,74496.00
2018-02-08T11:14:59.017Z,75936.00
2018-02-08T11:15:59.044Z,75872.00
2018-02-08T11:16:59.076Z,73696.00
2018-02-08T11:17:59.104Z,72416.00
2018-02-08T11:18:59.131Z,74112.00
2018-02-08T11:19:59.152Z,73952.00
2018-02-08T11:20:59.184Z,72288.00
2018-02-08T11:21:59.213Z,73888.00
2018-02-08T11:22:59.234Z,74272.00
2018-02-08T11:23:59.261Z,73984.00
2018-02-08T11:24:59.289Z,71072.00
2018-02-08T11:25:59.316Z,67136.00
2018-02-08T11:26:59.350Z,73184.00
2018-02-08T11:27:59.377Z,69856.00
2018-02-08T11:28:59.398Z,71840.00
2018-02-08T11:29:59.427Z,76096.00
2018-02-08T11:30:59.458Z,75200.00
2018-02-08T11:31:59.487Z,67200.00
2018-02-08T11:32:59.510Z,66912.00
2018-02-08T11:33:59.542Z,67488.00
2018-02-08T11:34:59.568Z,69920.00
2018-02-08T11:35:59.596Z,71648.00
2018-02-08T11:36:59.618Z,69760.00
2018-02-08T11:37:59.650Z,69632.00
2018-02-08T11:38:59.673Z,68224.00
2018-02-08T11:39:59.706Z,68096.00
2018-02-08T11:40:59.733Z,71840.00
2018-02-08T11:41:59.755Z,73920.00
2018-02-08T11:42:59.787Z,70784.00
2018-02-08T11:43:59.809Z,70560.00
2018-02-08T11:44:59.842Z,71808.00
2018-02-08T11:45:59.863Z,71680.00
2018-02-08T11:46:59.896Z,71136.00
2018-02-08T11:47:59.921Z,69984.00
2018-02-08T11:48:59.952Z,70592.00
2018-02-08T11:49:59.977Z,69408.00
2018-02-08T11:51:00.000Z,69824.00
2018-02-08T11:52:00.029Z,69568.00
2018-02-08T11:53:00.056Z,67680.00
2018-02-08T11:54:00.084Z,67136.00
2018-02-08T11:55:00.114Z,67456.00
2018-02-08T11:56:00.142Z,71840.00
2018-02-08T11:57:00.164Z,74400.00
2018-02-08T11:58:00.196Z,74528.00
2018-02-08T11:59:00.218Z,71744.00
2018-02-08T12:00:00.250Z,71456.00
2018-02-08T12:01:00.273Z,73376.00
2018-02-08T12:02:00.306Z,73824.00
2018-02-08T12:03:00.327Z,73696.00
2018-02-08T12:04:00.361Z,74368.00
2018-02-08T12:05:00.386Z,75168.00
2018-02-08T12:06:00.415Z,72416.00
2018-02-08T12:07:00.442Z,67296.00
2018-02-08T12:08:00.464Z,67008.00
2018-02-08T12:09:00.498Z,69280.00
2018-02-08T12:10:00.526Z,68768.00
2018-02-08T12:11:00.546Z,67136.00
2018-02-08T12:12:00.574Z,65184.00
2018-02-08T12:13:00.603Z,67008.00
2018-02-08T12:14:00.640Z,65568.00
2018-02-08T12:15:00.659Z,64288.00
2018-02-08T12:16:00.692Z,62784.00
2018-02-08T12:17:00.713Z,61536.00
2018-02-08T12:18:00.746Z,61120.00
2018-02-08T12:19:00.774Z,60384.00
2018-02-08T12:20:00.794Z,58144.00
2018-02-08T12:21:00.823Z,55168.00
2018-02-08T12:22:00.875Z,55680.00
2018-02-08T12:23:00.881Z,57312.00
2018-02-08T12:24:00.912Z,57472.00
2018-02-08T12:25:00.930Z,55936.00
2018-02-08T12:26:00.958Z,56192.00
2018-02-08T12:27:00.989Z,57728.00
2018-02-08T12:28:01.016Z,54272.00
2018-02-08T12:29:01.037Z,53408.00
2018-02-08T12:30:01.064Z,52832.00
2018-02-08T12:31:01.096Z,50752.00
2018-02-08T12:32:01.115Z,53472.00
2018-02-08T12:33:01.149Z,54624.00
2018-02-08T12:34:01.169Z,49344.00
2018-02-08T12:35:01.195Z,50144.00
2018-02-08T12:36:01.226Z,38624.00
2018-02-08T12:37:01.253Z,42400.00